Time;durP1;ratioP1;P1;durP2;ratioP2;P2;SDS_P1;SDS_P2;PMS_P1;PMS_P2;Temp;Humidity;BMP_temperature;BMP_pressure;BME280_temperature;BME280_humidity;BME280_pressure;Samples;Min_cycle;Max_cycle;Signal;HPM_P1;HPM_P2
2023/10/05 00:01:02;;;;;;;8.03;2.83;;;;;;;13.64;59.26;99774.88;7049289;28;20220;-89
2023/10/05 00:04:26;;;;;;;2.90;2.70;;;;;;;13.26;59.45;99755.50;7050905;28;20233;-84
2023/10/05 00:07:47;;;;;;;4.77;3.00;;;;;;;13.40;59.38;99775.38;7040695;28;20203;-84
2023/10/05 00:11:09;;;;;;;5.10;3.47;;;;;;;13.29;60.13;99740.72;7035435;28;20243;-85
2023/10/05 00:14:35;;;;;;;4.30;2.83;;;;;;;13.29;59.55;99695.50;7048962;28;20285;-84
2023/10/05 00:17:56;;;;;;;4.23;2.70;;;;;;;13.69;58.16;99715.50;7054579;28;20193;-85
2023/10/05 00:21:19;;;;;;;5.40;2.93;;;;;;;13.31;57.80;99706.13;7049063;28;20361;-85
2023/10/05 00:24:43;;;;;;;3.67;2.70;;;;;;;13.32;59.12;99761.97;7043628;28;20627;-84
2023/10/05 00:28:09;;;;;;;3.93;2.90;;;;;;;13.33;59.88;99747.41;7044472;28;20193;-85
2023/10/05 00:31:39;;;;;;;4.23;2.90;;;;;;;12.93;60.30;99696.72;7045511;28;20203;-86
2023/10/05 00:35:14;;;;;;;4.30;2.80;;;;;;;13.15;60.25;99752.50;7053769;28;20217;-85
2023/10/05 00:38:36;;;;;;;3.37;2.90;;;;;;;13.36;59.90;99753.28;7041970;28;20778;-84
2023/10/05 00:42:00;;;;;;;3.40;2.80;;;;;;;13.52;59.82;99739.38;7029483;28;20220;-85
2023/10/05 00:45:25;;;;;;;3.43;2.60;;;;;;;13.57;59.71;99744.22;7038741;28;20684;-85
2023/10/05 00:49:00;;;;;;;6.07;2.77;;;;;;;13.78;58.97;99738.66;7040214;28;20219;-84
2023/10/05 00:52:24;;;;;;;2.93;2.60;;;;;;;13.55;59.73;99751.69;7055432;28;20189;-85
2023/10/05 00:55:56;;;;;;;2.90;2.70;;;;;;;13.39;59.73;99742.00;7055792;28;20229;-85
2023/10/05 00:59:20;;;;;;;3.87;3.17;;;;;;;13.27;59.97;99731.97;7056551;28;20561;-84
2023/10/05 01:02:46;;;;;;;4.57;2.80;;;;;;;13.62;59.91;99728.19;7046542;28;20201;-84
2023/10/05 01:06:13;;;;;;;3.87;2.60;;;;;;;13.73;59.29;99724.88;7041793;28;20240;-85
2023/10/05 01:09:55;;;;;;;3.10;2.80;;;;;;;13.89;58.32;99721.81;7038614;28;20240;-84
2023/10/05 01:13:28;;;;;;;3.80;2.77;;;;;;;13.87;58.52;99689.47;7049402;28;20200;-85
2023/10/05 01:16:49;;;;;;;3.77;3.00;;;;;;;14.13;58.02;99705.81;7055380;28;20317;-85
2023/10/05 01:20:22;;;;;;;4.23;3.00;;;;;;;13.94;58.33;99671.38;7055167;28;20208;-85
2023/10/05 01:23:48;;;;;;;5.20;3.10;;;;;;;13.68;59.88;99668.56;7043474;28;20224;-85
2023/10/05 01:27:11;;;;;;;6.77;3.97;;;;;;;14.03;59.84;99707.22;7054067;27;20205;-85
2023/10/05 01:30:37;;;;;;;5.53;3.60;;;;;;;13.39;60.08;99625.53;7049760;28;20299;-85
2023/10/05 01:33:59;;;;;;;5.43;4.33;;;;;;;14.00;59.83;99700.38;7054629;28;20216;-85
2023/10/05 01:37:23;;;;;;;7.60;3.73;;;;;;;14.28;58.86;99682.06;7032992;28;20205;-85
2023/10/05 01:40:51;;;;;;;6.87;3.63;;;;;;;13.19;60.06;99605.69;7027221;28;20255;-85
2023/10/05 01:44:14;;;;;;;5.63;3.73;;;;;;;14.30;60.00;99707.13;7042675;28;20235;-85
2023/10/05 01:47:35;;;;;;;6.73;3.90;;;;;;;14.56;59.30;99690.00;7042364;28;20208;-85
2023/10/05 01:50:58;;;;;;;5.17;3.50;;;;;;;14.56;58.91;99690.00;7037312;28;20261;-85
2023/10/05 01:54:25;;;;;;;8.00;3.80;;;;;;;14.33;59.29;99695.03;7036384;28;20216;-86
2023/10/05 01:57:49;;;;;;;6.40;3.97;;;;;;;13.30;60.19;99574.47;7034765;28;20208;-85
2023/10/05 02:01:12;;;;;;;5.23;3.50;;;;;;;14.28;59.83;99694.81;7039972;28;20201;-86
2023/10/05 02:04:38;;;;;;;5.67;3.53;;;;;;;14.38;59.61;99673.50;7036277;28;20229;-84
2023/10/05 02:08:00;;;;;;;5.73;3.43;;;;;;;14.33;59.12;99665.19;7041155;28;20566;-85
2023/10/05 02:11:23;;;;;;;5.77;4.60;;;;;;;14.27;60.05;99666.03;7037219;28;20216;-85
2023/10/05 02:14:47;;;;;;;5.00;4.03;;;;;;;14.29;59.72;99678.31;7032063;28;20225;-86
2023/10/05 02:18:22;;;;;;;5.43;4.03;;;;;;;13.81;59.81;99589.19;7042268;28;20648;-86
2023/10/05 02:21:45;;;;;;;4.90;3.73;;;;;;;14.24;59.96;99677.25;7048137;28;20581;-85
2023/10/05 02:25:08;;;;;;;6.40;4.00;;;;;;;14.32;59.81;99679.75;7046002;28;20232;-85
2023/10/05 02:28:33;;;;;;;4.47;3.80;;;;;;;14.17;60.64;99690.78;7046934;28;20201;-86
2023/10/05 02:32:05;;;;;;;5.03;4.20;;;;;;;14.12;60.40;99692.44;7039120;28;20196;-86
2023/10/05 02:35:30;;;;;;;5.47;3.97;;;;;;;14.17;60.53;99668.25;7038402;28;20263;-83
2023/10/05 02:38:53;;;;;;;6.40;3.83;;;;;;;14.65;58.90;99673.31;7039619;28;20208;-85
2023/10/05 02:42:16;;;;;;;8.57;3.90;;;;;;;14.51;58.83;99678.97;7041593;28;20212;-85
2023/10/05 02:45:37;;;;;;;5.70;4.13;;;;;;;14.42;58.86;99677.47;7040312;28;20220;-85
2023/10/05 02:49:00;;;;;;;5.83;4.00;;;;;;;14.50;58.51;99669.13;7044444;28;20238;-85
2023/10/05 02:52:22;;;;;;;6.60;4.10;;;;;;;14.43;59.12;99677.28;7051324;27;20248;-85
2023/10/05 02:55:43;;;;;;;7.23;4.20;;;;;;;14.33;58.87;99682.28;7048610;28;20275;-84
2023/10/05 02:59:07;;;;;;;6.60;4.63;;;;;;;14.31;58.46;99667.25;7051037;27;20553;-84
2023/10/05 03:02:29;;;;;;;6.17;4.13;;;;;;;14.34;58.91;99666.84;7047621;28;20205;-84
2023/10/05 03:05:52;;;;;;;5.90;3.90;;;;;;;14.14;59.01;99641.53;7040069;28;20229;-85
2023/10/05 03:09:13;;;;;;;4.60;3.70;;;;;;;14.44;58.73;99672.69;7045369;28;20205;-84
2023/10/05 03:12:35;;;;;;;5.53;3.73;;;;;;;14.17;58.99;99663.66;7046369;28;20339;-85
2023/10/05 03:15:59;;;;;;;5.03;4.20;;;;;;;13.94;59.55;99646.97;7054792;28;20281;-85
2023/10/05 03:19:21;;;;;;;5.97;3.73;;;;;;;14.33;59.19;99654.34;7059724;28;20203;-84
2023/10/05 03:22:46;;;;;;;6.37;3.63;;;;;;;13.84;59.28;99569.78;7059356;28;20208;-86
2023/10/05 03:26:10;;;;;;;6.50;4.40;;;;;;;14.42;59.16;99672.06;7048124;28;20698;-84
2023/10/05 03:29:35;;;;;;;8.53;4.57;;;;;;;14.07;60.76;99667.81;7043482;28;20205;-83
2023/10/05 03:33:00;;;;;;;6.20;4.40;;;;;;;14.29;59.67;99659.31;7048033;28;20213;-84
2023/10/05 03:36:22;;;;;;;4.57;3.97;;;;;;;14.32;59.60;99668.91;7046587;28;20566;-86
2023/10/05 03:39:53;;;;;;;5.73;4.20;;;;;;;14.39;59.38;99662.47;7046993;28;20627;-85
2023/10/05 03:43:15;;;;;;;7.43;4.23;;;;;;;13.80;61.21;99674.25;7029459;28;20265;-84
2023/10/05 03:46:36;;;;;;;7.50;4.13;;;;;;;14.31;60.19;99661.81;7049877;28;20239;-85
2023/10/05 03:49:58;;;;;;;6.23;3.90;;;;;;;14.49;59.66;99690.03;7039644;28;20693;-84
2023/10/05 03:53:20;;;;;;;6.40;4.30;;;;;;;14.10;59.20;99588.78;7054524;27;20221;-85
2023/10/05 03:56:43;;;;;;;5.60;4.10;;;;;;;14.70;59.18;99678.13;7036146;28;20201;-84
2023/10/05 04:00:18;;;;;;;5.10;4.20;;;;;;;14.79;58.50;99680.41;7043482;28;20204;-87
2023/10/05 04:03:40;;;;;;;7.33;3.90;;;;;;;14.47;58.92;99702.13;7057019;28;20220;-86
2023/10/05 04:07:03;;;;;;;7.60;4.07;;;;;;;14.07;60.61;99703.91;7044852;28;20223;-85
2023/10/05 04:10:34;;;;;;;5.87;4.03;;;;;;;14.28;59.43;99686.66;7047309;28;20894;-84
2023/10/05 04:14:03;;;;;;;3.97;3.43;;;;;;;14.54;59.09;99692.94;7035814;28;20217;-86
2023/10/05 04:17:26;;;;;;;5.83;3.60;;;;;;;14.30;58.21;99601.34;7053692;28;20186;-85
2023/10/05 04:20:47;;;;;;;5.83;3.80;;;;;;;14.57;58.06;99692.50;7038623;27;20689;-85
2023/10/05 04:24:14;;;;;;;5.00;4.03;;;;;;;14.36;58.86;99683.75;7045686;28;20228;-85
2023/10/05 04:27:35;;;;;;;8.40;4.27;;;;;;;14.49;58.97;99689.16;7050469;27;20596;-85
2023/10/05 04:30:58;;;;;;;5.83;3.97;;;;;;;14.50;59.27;99691.69;7044945;28;20239;-86
2023/10/05 04:34:20;;;;;;;4.30;3.57;;;;;;;14.91;58.19;99696.88;7046279;27;20270;-84
2023/10/05 04:37:43;;;;;;;7.40;4.00;;;;;;;14.52;59.52;99688.78;7046685;28;20201;-88
2023/10/05 04:41:05;;;;;;;9.57;4.33;;;;;;;14.63;58.33;99656.38;7026988;28;20219;-87
2023/10/05 04:44:28;;;;;;;7.23;3.63;;;;;;;14.83;58.15;99678.09;7036623;28;20594;-87
2023/10/05 04:47:58;;;;;;;6.67;3.53;;;;;;;15.03;57.45;99679.72;7030889;28;20197;-85
2023/10/05 04:51:20;;;;;;;5.70;3.50;;;;;;;14.27;58.87;99626.16;7036425;28;20234;-87
2023/10/05 04:54:43;;;;;;;6.97;3.70;;;;;;;14.41;59.38;99689.38;7039885;28;20624;-86
2023/10/05 04:58:21;;;;;;;6.03;4.10;;;;;;;14.73;58.07;99692.09;7035597;28;20840;-86
2023/10/05 05:01:56;;;;;;;3.90;3.23;;;;;;;14.75;58.07;99659.31;7047412;28;20209;-86
2023/10/05 05:05:34;;;;;;;3.73;3.40;;;;;;;14.98;57.86;99678.72;7032799;28;20228;-86
2023/10/05 05:08:56;;;;;;;5.93;4.03;;;;;;;14.97;57.71;99675.16;7027322;28;20243;-86
2023/10/05 05:12:18;;;;;;;7.67;3.60;;;;;;;14.98;57.92;99679.53;7043200;28;20288;-85
2023/10/05 05:15:39;;;;;;;4.87;3.97;;;;;;;14.89;58.20;99680.81;7035405;28;20226;-86
2023/10/05 05:19:01;;;;;;;4.50;3.93;;;;;;;14.94;58.28;99686.44;7029188;28;20261;-86
2023/10/05 05:22:23;;;;;;;6.27;3.83;;;;;;;14.93;57.60;99635.88;7038252;28;20210;-86
2023/10/05 05:25:48;;;;;;;6.33;3.50;;;;;;;15.13;57.50;99671.13;7041882;28;20303;-85
2023/10/05 05:29:11;;;;;;;6.30;3.97;;;;;;;14.89;58.33;99667.22;7062970;28;20284;-85
2023/10/05 05:32:32;;;;;;;7.57;4.63;;;;;;;14.69;58.97;99687.31;7054732;28;20234;-85
2023/10/05 05:35:54;;;;;;;6.27;3.90;;;;;;;14.43;59.56;99685.44;7050904;28;20350;-86
2023/10/05 05:39:17;;;;;;;8.23;4.17;;;;;;;14.35;60.01;99684.78;7043383;28;20208;-86
2023/10/05 05:42:39;;;;;;;5.10;3.67;;;;;;;14.80;58.73;99690.19;7049582;28;20206;-86
2023/10/05 05:46:01;;;;;;;7.80;3.97;;;;;;;15.08;58.09;99693.50;7025655;28;20225;-85
2023/10/05 05:49:24;;;;;;;5.07;3.60;;;;;;;15.32;57.43;99691.97;7036144;28;20199;-86
2023/10/05 05:52:47;;;;;;;6.70;3.90;;;;;;;15.19;57.19;99689.28;7036040;28;20202;-86
2023/10/05 05:56:16;;;;;;;6.27;3.90;;;;;;;15.00;57.61;99680.16;7037460;28;20226;-86
2023/10/05 05:59:39;;;;;;;5.20;4.17;;;;;;;15.06;58.47;99714.63;7035399;28;20211;-85
2023/10/05 06:03:01;;;;;;;6.40;3.60;;;;;;;15.45;57.66;99698.22;7038076;28;20202;-83
2023/10/05 06:06:22;;;;;;;7.40;4.53;;;;;;;15.62;57.50;99682.28;7051352;28;20315;-84
2023/10/05 06:09:45;;;;;;;5.00;4.03;;;;;;;15.81;57.03;99693.06;7046528;28;20245;-84
2023/10/05 06:13:11;;;;;;;5.73;3.50;;;;;;;15.50;56.83;99692.16;7050425;28;20215;-85
2023/10/05 06:16:34;;;;;;;8.40;3.60;;;;;;;15.00;56.47;99600.56;7041086;28;20206;-85
2023/10/05 06:19:56;;;;;;;3.70;3.23;;;;;;;15.71;56.05;99661.94;7056194;28;20200;-86
2023/10/05 06:23:17;;;;;;;5.77;3.43;;;;;;;15.69;56.59;99683.91;7038423;28;20213;-85
2023/10/05 06:26:40;;;;;;;5.83;3.63;;;;;;;15.51;56.10;99648.44;7045593;28;20241;-85
2023/10/05 06:30:06;;;;;;;5.13;3.63;;;;;;;15.21;56.59;99650.00;7055617;28;20248;-84
2023/10/05 06:33:28;;;;;;;4.67;3.67;;;;;;;15.76;56.71;99701.03;7034524;28;20217;-84
2023/10/05 06:36:51;;;;;;;7.20;3.87;;;;;;;15.76;56.45;99692.88;7041538;28;20292;-84
2023/10/05 06:40:13;;;;;;;4.33;3.47;;;;;;;15.40;57.45;99708.91;7048866;28;20193;-85
2023/10/05 06:43:35;;;;;;;3.83;3.43;;;;;;;15.75;56.86;99710.25;7031981;28;20228;-86
2023/10/05 06:46:59;;;;;;;5.70;3.60;;;;;;;15.87;56.91;99711.22;7034195;28;20229;-85
2023/10/05 06:50:21;;;;;;;4.43;3.50;;;;;;;15.86;56.84;99717.72;7034886;28;20291;-85
2023/10/05 06:53:43;;;;;;;6.00;3.63;;;;;;;15.89;56.73;99722.75;7043463;28;20233;-84
2023/10/05 06:57:05;;;;;;;5.37;3.83;;;;;;;16.05;56.52;99711.31;7047912;28;20212;-85
2023/10/05 07:00:27;;;;;;;5.60;3.30;;;;;;;16.10;56.34;99729.75;7031914;28;20341;-87
2023/10/05 07:03:52;;;;;;;5.27;3.77;;;;;;;16.50;55.14;99742.06;7044533;28;20223;-87
2023/10/05 07:07:14;;;;;;;6.73;3.50;;;;;;;16.19;55.51;99748.31;7048688;28;20736;-86
2023/10/05 07:10:35;;;;;;;6.53;3.83;;;;;;;16.28;55.77;99733.38;7033589;28;20217;-86
2023/10/05 07:13:57;;;;;;;5.77;3.37;;;;;;;16.30;55.57;99754.94;7039798;28;20234;-87
2023/10/05 07:17:18;;;;;;;4.47;3.47;;;;;;;16.41;55.22;99757.00;7031796;28;20241;-88
2023/10/05 07:20:41;;;;;;;6.47;3.50;;;;;;;16.45;55.92;99769.94;7057740;28;20302;-88
2023/10/05 07:24:04;;;;;;;8.33;4.20;;;;;;;15.91;56.14;99727.94;7052154;28;20251;-88
2023/10/05 07:27:25;;;;;;;6.63;5.67;;;;;;;16.74;55.42;99763.06;7057279;28;20228;-88
2023/10/05 07:30:47;;;;;;;11.03;9.57;;;;;;;16.66;53.47;99681.63;7046501;28;20287;-86
2023/10/05 07:34:09;;;;;;;10.53;4.10;;;;;;;17.05;54.10;99752.09;7036627;28;20269;-87
2023/10/05 07:37:32;;;;;;;6.77;4.10;;;;;;;16.88;54.26;99742.81;7053846;28;20299;-88
2023/10/05 07:40:54;;;;;;;4.23;3.40;;;;;;;17.43;54.28;99741.88;7045923;28;20268;-86
2023/10/05 07:44:16;;;;;;;6.17;3.70;;;;;;;17.97;52.61;99766.41;7041431;28;20260;-87
2023/10/05 07:47:41;;;;;;;11.17;3.90;;;;;;;18.01;51.56;99776.66;7038247;28;20226;-88
2023/10/05 07:51:03;;;;;;;4.93;3.13;;;;;;;18.86;49.54;99764.53;7028689;28;20216;-88
2023/10/05 07:54:27;;;;;;;5.67;3.70;;;;;;;18.72;50.02;99766.66;7043706;28;20223;-87
2023/10/05 07:57:49;;;;;;;4.37;2.97;;;;;;;19.48;48.31;99726.44;7039141;28;20266;-88
2023/10/05 08:01:10;;;;;;;6.87;3.27;;;;;;;20.25;46.12;99760.63;7043509;28;20291;-88
2023/10/05 08:04:32;;;;;;;4.83;3.60;;;;;;;20.38;45.79;99758.44;7044047;28;20232;-88
2023/10/05 08:07:54;;;;;;;3.97;3.40;;;;;;;20.45;45.87;99758.31;7043615;28;20235;-87
2023/10/05 08:11:17;;;;;;;4.63;2.80;;;;;;;21.05;44.55;99778.59;7041005;28;20671;-88
2023/10/05 08:14:39;;;;;;;4.83;2.73;;;;;;;21.10;43.84;99743.84;7042388;28;20235;-87
2023/10/05 08:18:00;;;;;;;4.40;2.60;;;;;;;20.93;44.12;99761.41;7040499;28;20557;-87
2023/10/05 08:21:22;;;;;;;5.33;2.87;;;;;;;20.50;45.37;99775.66;7040771;28;20591;-87
2023/10/05 08:24:44;;;;;;;8.70;3.03;;;;;;;20.45;44.57;99774.75;7055355;28;20216;-88
2023/10/05 08:28:09;;;;;;;4.60;2.90;;;;;;;20.36;46.40;99779.78;7038819;27;20311;-86
2023/10/05 08:31:31;;;;;;;5.33;3.00;;;;;;;20.47;44.31;99740.56;7039915;28;20204;-93
2023/10/05 08:34:52;;;;;;;4.37;3.73;;;;;;;19.95;46.82;99746.31;7048137;28;20687;-87
2023/10/05 08:38:16;;;;;;;5.53;3.30;;;;;;;20.80;46.45;99791.84;7053611;28;20224;-86
2023/10/05 08:41:41;;;;;;;4.67;3.23;;;;;;;20.89;44.42;99787.63;7043683;28;20213;-88
2023/10/05 08:45:05;;;;;;;8.17;3.37;;;;;;;20.55;45.73;99769.44;7049235;28;20212;-85
2023/10/05 08:48:35;;;;;;;6.93;3.40;;;;;;;20.71;45.06;99774.97;7045644;28;20249;-85
2023/10/05 08:51:59;;;;;;;6.07;3.20;;;;;;;21.36;43.91;99770.63;7044147;28;20580;-86
2023/10/05 08:55:22;;;;;;;5.33;3.13;;;;;;;20.27;44.37;99681.81;7035108;28;20229;-87
2023/10/05 08:58:46;;;;;;;8.83;3.17;;;;;;;20.73;44.26;99786.50;7034843;28;20205;-86
2023/10/05 09:02:09;;;;;;;5.43;3.13;;;;;;;20.91;43.62;99763.53;7035031;28;20209;-86
2023/10/05 09:05:33;;;;;;;5.60;3.23;;;;;;;21.02;42.09;99751.66;7042891;28;20286;-87
2023/10/05 09:09:06;;;;;;;5.10;3.40;;;;;;;21.62;40.48;99724.06;7054746;28;20205;-87
2023/10/05 09:12:35;;;;;;;7.37;3.10;;;;;;;21.45;40.57;99769.09;7037793;28;20198;-87
2023/10/05 09:15:57;;;;;;;7.87;3.57;;;;;;;20.66;42.78;99771.28;7036042;28;20255;-87
2023/10/05 09:19:27;;;;;;;6.97;3.20;;;;;;;21.85;40.56;99755.97;7045643;28;20257;-91
2023/10/05 09:22:49;;;;;;;6.47;3.47;;;;;;;21.95;40.33;99767.09;7037187;28;20201;-85
2023/10/05 09:26:26;;;;;;;6.53;3.50;;;;;;;22.32;40.19;99773.59;7034310;28;20227;-89
2023/10/05 09:29:51;;;;;;;8.80;4.00;;;;;;;22.31;40.76;99760.94;7026399;28;20296;-88
2023/10/05 09:33:18;;;;;;;13.80;4.47;;;;;;;21.34;41.89;99695.94;7025822;28;20294;-88
2023/10/05 09:36:41;;;;;;;6.70;3.50;;;;;;;21.40;41.79;99725.94;7026000;28;20210;-87
2023/10/05 09:40:05;;;;;;;7.13;3.73;;;;;;;22.26;41.15;99786.47;7025475;28;20247;-88
2023/10/05 09:43:30;;;;;;;6.03;3.83;;;;;;;22.00;40.41;99776.22;7038452;28;20205;-86
2023/10/05 09:46:52;;;;;;;10.40;4.77;;;;;;;22.79;40.32;99786.53;7033878;28;20282;-87
2023/10/05 09:50:15;;;;;;;10.13;4.37;;;;;;;23.04;39.86;99773.00;7039944;28;20209;-87
2023/10/05 09:53:39;;;;;;;8.00;3.90;;;;;;;23.06;38.97;99758.97;7035669;28;20229;-87
2023/10/05 09:57:10;;;;;;;7.67;4.23;;;;;;;23.44;39.09;99767.84;7042383;28;20557;-88
2023/10/05 10:00:47;;;;;;;9.63;4.27;;;;;;;23.33;39.98;99770.78;7035307;28;20220;-86
2023/10/05 10:04:09;;;;;;;10.50;3.97;;;;;;;23.19;38.56;99659.50;7039181;28;20642;-88
2023/10/05 10:07:32;;;;;;;6.90;4.10;;;;;;;23.55;38.56;99754.97;7044602;28;20604;-86
2023/10/05 10:11:06;;;;;;;7.83;4.10;;;;;;;22.49;39.38;99697.41;7031079;28;20213;-86
2023/10/05 10:14:29;;;;;;;11.53;4.70;;;;;;;23.72;38.52;99764.69;7045890;28;20240;-90
2023/10/05 10:17:53;;;;;;;9.90;4.47;;;;;;;22.86;38.66;99657.03;7025311;28;20324;-88
2023/10/05 10:21:25;;;;;;;11.93;5.37;;;;;;;23.11;39.29;99742.50;7033172;28;20209;-88
2023/10/05 10:24:49;;;;;;;8.50;4.80;;;;;;;23.09;39.68;99739.19;7028421;28;20313;-88
2023/10/05 10:28:16;;;;;;;7.90;4.40;;;;;;;23.60;38.00;99763.25;7032923;28;20226;-89
2023/10/05 10:31:43;;;;;;;7.53;4.77;;;;;;;23.15;38.20;99741.72;7050212;28;20209;-90
2023/10/05 10:35:09;;;;;;;8.60;4.83;;;;;;;23.10;39.30;99760.94;7047217;28;20228;-89
2023/10/05 10:38:31;;;;;;;13.57;5.27;;;;;;;22.90;39.15;99763.50;7027445;28;20210;-89
2023/10/05 10:42:04;;;;;;;9.63;5.10;;;;;;;22.93;39.68;99776.75;7024405;28;20213;-88
2023/10/05 10:45:29;;;;;;;9.93;5.37;;;;;;;23.36;38.25;99773.81;7054376;28;20228;-88
2023/10/05 10:48:57;;;;;;;13.17;4.83;;;;;;;23.03;38.45;99765.84;7042664;28;20205;-89
2023/10/05 10:52:18;;;;;;;9.93;4.60;;;;;;;22.70;38.92;99774.31;7024944;28;20237;-90
2023/10/05 10:55:45;;;;;;;9.23;4.73;;;;;;;22.63;39.35;99773.69;7052314;28;20341;-89
2023/10/05 10:59:11;;;;;;;8.90;4.80;;;;;;;23.71;37.29;99782.31;7052188;28;20198;-89
2023/10/05 11:02:38;;;;;;;8.63;3.97;;;;;;;23.11;38.50;99779.09;7048805;28;20213;-88
2023/10/05 11:06:00;;;;;;;9.40;3.87;;;;;;;23.18;37.63;99765.97;7038586;28;20239;-88
2023/10/05 11:09:30;;;;;;;7.60;4.60;;;;;;;23.44;37.51;99764.25;7048095;28;20203;-84
2023/10/05 11:12:57;;;;;;;9.57;4.87;;;;;;;23.33;36.76;99689.03;7048183;28;20202;-91
2023/10/05 11:16:19;;;;;;;10.83;4.90;;;;;;;23.45;37.56;99697.06;7046314;28;20223;-88
2023/10/05 11:19:44;;;;;;;10.70;4.67;;;;;;;23.06;37.20;99695.72;7032712;28;20206;-87
2023/10/05 11:23:10;;;;;;;9.53;4.40;;;;;;;23.46;37.13;99740.88;7032745;28;20206;-89
2023/10/05 11:26:34;;;;;;;8.83;4.53;;;;;;;23.18;38.41;99751.41;7036840;28;20222;-89
2023/10/05 11:29:59;;;;;;;8.63;3.93;;;;;;;23.15;38.42;99755.47;7068699;27;20213;-89
2023/10/05 11:33:23;;;;;;;9.80;4.80;;;;;;;23.44;36.63;99747.72;7030965;28;20207;-88
2023/10/05 11:36:47;;;;;;;9.50;4.43;;;;;;;23.46;37.38;99749.13;7057899;28;20208;-88
2023/10/05 11:40:17;;;;;;;6.33;3.87;;;;;;;23.30;37.31;99744.59;7039902;28;20576;-88
2023/10/05 11:43:39;;;;;;;6.07;4.20;;;;;;;23.53;36.83;99726.84;7049671;28;20731;-91
2023/10/05 11:47:00;;;;;;;6.60;4.37;;;;;;;22.37;38.87;99737.94;7029213;28;20246;-87
2023/10/05 11:50:25;;;;;;;7.67;4.30;;;;;;;22.99;38.47;99752.84;7028712;28;20741;-90
2023/10/05 11:53:50;;;;;;;9.57;4.17;;;;;;;22.89;37.89;99695.03;7028293;28;20226;-89
2023/10/05 11:57:12;;;;;;;11.30;4.70;;;;;;;22.60;38.05;99697.22;7034335;28;20258;-89
2023/10/05 12:00:35;;;;;;;8.20;4.07;;;;;;;22.72;38.48;99738.31;7053546;28;20699;-89
2023/10/05 12:03:56;;;;;;;8.10;4.43;;;;;;;22.66;37.87;99733.88;7035669;28;20228;-89
2023/10/05 12:07:18;;;;;;;8.00;4.23;;;;;;;22.18;37.62;99668.75;7043859;28;20232;-89
2023/10/05 12:10:42;;;;;;;13.00;5.07;;;;;;;22.16;37.62;99626.13;7045802;28;20208;-89
2023/10/05 12:14:04;;;;;;;7.50;4.43;;;;;;;23.19;36.70;99739.31;7053558;28;20274;-89
2023/10/05 12:17:26;;;;;;;10.07;3.90;;;;;;;22.55;38.01;99680.69;7055006;28;20194;-89
2023/10/05 12:20:47;;;;;;;8.97;4.50;;;;;;;23.40;37.05;99711.66;7038545;28;20531;-88
2023/10/05 12:24:11;;;;;;;9.23;4.87;;;;;;;22.33;38.14;99641.44;7046966;28;20611;-89
2023/10/05 12:27:35;;;;;;;8.57;3.77;;;;;;;22.79;37.64;99670.19;7054377;28;20230;-89
2023/10/05 12:30:56;;;;;;;5.93;3.37;;;;;;;22.44;38.91;99744.06;7045963;28;20193;-89
2023/10/05 12:34:23;;;;;;;7.90;3.97;;;;;;;22.68;39.15;99760.00;7038794;28;20262;-89
2023/10/05 12:37:46;;;;;;;8.87;4.20;;;;;;;22.31;39.19;99759.00;7036381;28;20275;-89
2023/10/05 12:41:13;;;;;;;8.77;4.20;;;;;;;22.28;38.29;99728.47;7047617;28;20215;-88
2023/10/05 12:44:36;;;;;;;8.17;3.87;;;;;;;22.00;39.78;99731.44;7039341;28;20229;-88
2023/10/05 12:47:58;;;;;;;13.13;4.80;;;;;;;22.27;39.21;99757.88;7043233;28;20227;-88
2023/10/05 12:51:22;;;;;;;9.97;4.50;;;;;;;22.04;39.58;99765.56;7043149;28;20226;-89
2023/10/05 12:54:44;;;;;;;8.90;4.50;;;;;;;21.88;39.59;99750.81;7036287;28;20350;-88
2023/10/05 12:58:08;;;;;;;10.97;4.50;;;;;;;22.41;39.56;99753.63;7036014;28;20293;-88
2023/10/05 13:01:32;;;;;;;8.90;4.10;;;;;;;22.03;39.08;99722.69;7041234;28;20236;-85
2023/10/05 13:04:55;;;;;;;6.80;4.40;;;;;;;21.67;39.77;99742.56;7036261;28;20219;-86
2023/10/05 13:08:16;;;;;;;6.80;4.07;;;;;;;21.89;39.80;99707.72;7037120;28;20367;-85
2023/10/05 13:11:39;;;;;;;11.30;4.57;;;;;;;22.06;38.79;99714.78;7042261;28;20211;-86
2023/10/05 13:15:03;;;;;;;8.40;3.80;;;;;;;21.77;39.19;99728.97;7035259;28;20237;-85
2023/10/05 13:18:30;;;;;;;9.10;3.87;;;;;;;22.40;39.28;99730.00;7041821;28;20735;-85
2023/10/05 13:21:51;;;;;;;11.20;4.80;;;;;;;22.04;39.64;99699.63;7041088;27;20385;-86
2023/10/05 13:25:13;;;;;;;15.00;5.43;;;;;;;22.25;39.19;99698.78;7045563;28;20224;-86
2023/10/05 13:28:35;;;;;;;9.33;4.37;;;;;;;22.33;38.16;99657.94;7032763;28;20230;-86
2023/10/05 13:31:57;;;;;;;10.57;3.87;;;;;;;21.79;39.73;99713.91;7035049;28;20205;-87
2023/10/05 13:35:24;;;;;;;8.20;5.13;;;;;;;22.09;40.16;99697.78;7040311;28;20229;-86
2023/10/05 13:38:46;;;;;;;9.70;3.83;;;;;;;22.40;39.34;99709.91;7035388;28;20656;-86
2023/10/05 13:42:10;;;;;;;9.73;3.93;;;;;;;22.62;39.33;99705.22;7043794;28;20221;-87
2023/10/05 13:45:33;;;;;;;10.93;5.10;;;;;;;22.77;39.18;99708.94;7044720;28;20231;-86
2023/10/05 13:48:55;;;;;;;7.80;4.27;;;;;;;22.44;39.33;99662.47;7041743;28;20222;-86
2023/10/05 13:52:20;;;;;;;8.47;4.10;;;;;;;22.47;39.66;99683.91;7026969;28;20202;-86
2023/10/05 13:55:42;;;;;;;10.97;4.23;;;;;;;22.40;39.93;99677.78;7045925;28;20270;-86
2023/10/05 13:59:06;;;;;;;6.87;4.07;;;;;;;22.33;39.30;99695.56;7047688;28;20208;-86
2023/10/05 14:02:31;;;;;;;8.87;4.23;;;;;;;22.11;39.88;99711.25;7029672;28;20207;-86
2023/10/05 14:05:59;;;;;;;11.33;4.17;;;;;;;21.91;39.92;99691.78;7038995;28;20332;-84
2023/10/05 14:09:22;;;;;;;9.90;4.17;;;;;;;21.78;40.27;99706.72;7041374;28;20220;-85
2023/10/05 14:12:44;;;;;;;9.47;4.40;;;;;;;20.93;40.71;99669.00;7044278;28;20220;-85
2023/10/05 14:16:06;;;;;;;7.60;3.57;;;;;;;21.51;40.69;99703.06;7039489;28;20263;-85
2023/10/05 14:19:30;;;;;;;9.20;3.90;;;;;;;21.56;40.44;99622.69;7049100;28;20205;-85
2023/10/05 14:22:52;;;;;;;10.20;3.97;;;;;;;22.17;39.97;99690.97;7032669;28;20201;-85
2023/10/05 14:26:15;;;;;;;7.90;4.00;;;;;;;21.96;39.55;99708.34;7035676;28;20449;-85
2023/10/05 14:29:36;;;;;;;8.87;4.30;;;;;;;21.81;39.58;99694.41;7041568;28;20730;-85
2023/10/05 14:32:58;;;;;;;7.67;4.07;;;;;;;21.89;39.93;99691.22;7045591;28;20213;-85
2023/10/05 14:36:20;;;;;;;10.17;4.00;;;;;;;22.21;39.50;99695.72;7035407;28;20358;-85
2023/10/05 14:39:44;;;;;;;8.07;3.90;;;;;;;21.88;40.48;99695.88;7028566;28;20198;-85
2023/10/05 14:43:08;;;;;;;9.43;4.03;;;;;;;22.09;40.51;99708.78;7044422;28;20219;-85
2023/10/05 14:46:30;;;;;;;8.97;4.00;;;;;;;22.09;40.55;99722.50;7038973;28;20228;-85
2023/10/05 14:49:52;;;;;;;7.20;4.40;;;;;;;22.23;40.51;99721.00;7042925;27;20227;-84
2023/10/05 14:53:13;;;;;;;5.03;3.53;;;;;;;21.57;41.08;99651.81;7031018;28;20278;-86
2023/10/05 14:56:35;;;;;;;11.83;4.37;;;;;;;21.83;41.44;99704.06;7033716;28;20213;-86
2023/10/05 14:59:58;;;;;;;10.23;3.90;;;;;;;22.02;40.81;99694.38;7049448;28;20287;-86
2023/10/05 15:03:19;;;;;;;10.53;4.20;;;;;;;21.79;41.04;99653.50;7044375;28;20350;-85
2023/10/05 15:06:42;;;;;;;12.77;4.67;;;;;;;21.95;42.07;99695.69;7040862;28;20277;-86
2023/10/05 15:10:09;;;;;;;8.60;4.20;;;;;;;22.06;40.34;99681.00;7039491;28;20202;-86
2023/10/05 15:13:30;;;;;;;6.67;3.90;;;;;;;21.23;41.42;99674.13;7036644;28;20241;-87
2023/10/05 15:16:53;;;;;;;10.83;3.70;;;;;;;21.72;41.74;99665.75;7043623;28;20215;-88
2023/10/05 15:20:16;;;;;;;6.90;3.60;;;;;;;21.59;41.44;99609.28;7040498;28;20288;-87
2023/10/05 15:23:38;;;;;;;9.23;4.30;;;;;;;22.14;40.71;99680.53;7051522;28;20219;-87
2023/10/05 15:26:59;;;;;;;11.07;4.07;;;;;;;22.23;40.87;99679.81;7034747;28;20229;-87
2023/10/05 15:30:23;;;;;;;6.47;4.00;;;;;;;22.21;41.03;99676.50;7039392;28;20658;-87
2023/10/05 15:33:46;;;;;;;9.27;3.90;;;;;;;22.08;41.87;99685.13;7039450;28;20642;-88
2023/10/05 15:37:14;;;;;;;8.23;3.87;;;;;;;22.06;42.08;99684.56;7040606;28;20664;-86
2023/10/05 15:40:35;;;;;;;9.60;4.37;;;;;;;22.29;41.34;99691.66;7038331;28;20254;-84
2023/10/05 15:43:57;;;;;;;8.47;4.33;;;;;;;22.39;40.65;99686.28;7047739;28;20225;-85
2023/10/05 15:47:19;;;;;;;7.70;3.93;;;;;;;22.35;41.16;99694.22;7037564;28;20229;-87
2023/10/05 15:50:43;;;;;;;12.47;4.30;;;;;;;21.46;42.28;99634.38;7043696;28;20257;-88
2023/10/05 15:54:05;;;;;;;8.57;4.03;;;;;;;21.94;42.60;99702.25;7045811;27;20695;-84
2023/10/05 15:57:27;;;;;;;11.53;4.60;;;;;;;21.81;41.90;99706.22;7043157;27;20262;-88